createdAt,value
2023-03-10T00:00:00.591Z,98804.98
2023-03-10T00:02:35.007Z,98808.14
2023-03-10T00:05:04.767Z,98804.14
2023-03-10T00:07:33.946Z,98812.31
2023-03-10T00:10:03.256Z,98809.08
2023-03-10T00:12:32.477Z,98806.34
2023-03-10T00:15:01.995Z,98808.14
2023-03-10T00:17:31.436Z,98801.12
2023-03-10T00:20:00.703Z,98802.44
2023-03-10T00:22:29.915Z,98796.63
2023-03-10T00:24:59.455Z,98797.92
2023-03-10T00:27:28.967Z,98795.65
2023-03-10T00:29:58.308Z,98802.16
2023-03-10T00:32:27.895Z,98800.66
2023-03-10T00:34:57.461Z,98800.80
2023-03-10T00:37:27.007Z,98794.42
2023-03-10T00:39:56.297Z,98805.40
2023-03-10T00:42:25.614Z,98796.00
2023-03-10T00:44:54.940Z,98800.60
2023-03-10T00:47:25.278Z,98804.69
2023-03-10T00:49:55.237Z,98813.66
2023-03-10T00:52:24.452Z,98807.98
2023-03-10T00:54:54.168Z,98808.83
2023-03-10T00:57:23.372Z,98808.73
2023-03-10T00:59:53.307Z,98803.61
2023-03-10T01:02:22.871Z,98808.95
2023-03-10T01:04:52.257Z,98799.98
2023-03-10T01:07:21.588Z,98795.72
2023-03-10T01:09:51.004Z,98801.95
2023-03-10T01:12:20.567Z,98792.38
2023-03-10T01:14:50.094Z,98791.54
2023-03-10T01:17:19.355Z,98784.09
2023-03-10T01:19:48.822Z,98778.80
2023-03-10T01:22:18.038Z,98777.50
2023-03-10T01:24:47.366Z,98778.33
2023-03-10T01:27:16.655Z,98778.73
2023-03-10T01:29:45.888Z,98775.39
2023-03-10T01:32:15.146Z,98771.35
2023-03-10T01:34:45.926Z,98773.31
2023-03-10T01:37:15.152Z,98771.41
2023-03-10T01:39:44.599Z,98762.72
2023-03-10T01:42:13.900Z,98758.95
2023-03-10T01:44:43.419Z,98759.75
2023-03-10T01:47:13.711Z,98768.80
2023-03-10T01:49:45.563Z,98754.08
2023-03-10T01:52:21.012Z,98754.22
2023-03-10T01:55:06.770Z,98749.89
2023-03-10T01:57:41.583Z,98756.59
2023-03-10T02:00:16.211Z,98741.48
2023-03-10T02:02:59.747Z,98739.02
2023-03-10T02:05:29.748Z,98738.73
2023-03-10T02:07:59.946Z,98734.27
2023-03-10T02:10:30.148Z,98738.92
2023-03-10T02:12:59.443Z,98739.20
2023-03-10T02:15:29.303Z,98726.60
2023-03-10T02:17:58.666Z,98726.27
2023-03-10T02:20:34.292Z,98721.59
2023-03-10T02:23:03.773Z,98714.94
2023-03-10T02:25:51.758Z,98716.05
2023-03-10T02:28:22.241Z,98712.00
2023-03-10T02:30:53.284Z,98703.92
2023-03-10T02:33:27.763Z,98701.59
2023-03-10T02:36:06.489Z,98693.09
2023-03-10T02:38:35.700Z,98696.19
2023-03-10T02:41:08.357Z,98695.22
2023-03-10T02:43:37.758Z,98680.20
2023-03-10T02:46:11.938Z,98675.50
2023-03-10T02:48:43.551Z,98677.96
2023-03-10T02:51:17.628Z,98674.71
2023-03-10T02:53:47.635Z,98676.16
2023-03-10T02:56:17.314Z,98671.09
2023-03-10T02:58:47.704Z,98669.87
2023-03-10T03:01:18.558Z,98668.48
2023-03-10T03:03:48.030Z,98667.27
2023-03-10T03:06:17.630Z,98668.20
2023-03-10T03:08:47.047Z,98664.66
2023-03-10T03:11:18.203Z,98666.63
2023-03-10T03:13:48.257Z,98663.50
2023-03-10T03:16:18.181Z,98665.25
2023-03-10T03:18:48.382Z,98656.56
2023-03-10T03:21:21.351Z,98663.41
2023-03-10T03:23:50.959Z,98660.94
2023-03-10T03:26:23.357Z,98668.94
2023-03-10T03:28:54.660Z,98665.77
2023-03-10T03:31:26.866Z,98659.83
2023-03-10T03:33:57.776Z,98660.52
2023-03-10T03:36:27.059Z,98657.58
2023-03-10T03:38:57.369Z,98655.71
2023-03-10T03:41:28.594Z,98654.41
2023-03-10T03:43:57.982Z,98650.50
2023-03-10T03:46:27.868Z,98643.70
2023-03-10T03:48:58.843Z,98648.77
2023-03-10T03:51:28.603Z,98647.94
2023-03-10T03:53:58.212Z,98640.12
2023-03-10T03:56:27.722Z,98643.83
2023-03-10T03:58:56.996Z,98638.25
2023-03-10T04:01:26.583Z,98636.30
2023-03-10T04:03:56.775Z,98626.34
2023-03-10T04:06:26.441Z,98627.51
2023-03-10T04:08:56.118Z,98628.13
2023-03-10T04:11:26.781Z,98623.13
2023-03-10T04:13:55.990Z,98625.05
2023-03-10T04:16:25.632Z,98634.78
2023-03-10T04:18:55.100Z,98632.39
2023-03-10T04:21:25.528Z,98638.54
2023-03-10T04:23:55.915Z,98635.14
2023-03-10T04:26:26.930Z,98633.88
2023-03-10T04:28:56.478Z,98629.54
2023-03-10T04:31:26.289Z,98631.17
2023-03-10T04:33:55.657Z,98625.63
2023-03-10T04:36:25.585Z,98616.08
2023-03-10T04:38:56.681Z,98628.85
2023-03-10T04:41:27.792Z,98627.41
2023-03-10T04:43:57.202Z,98634.42
2023-03-10T04:46:26.587Z,98627.48
2023-03-10T04:48:57.788Z,98622.73
2023-03-10T04:51:27.221Z,98630.73
2023-03-10T04:53:58.934Z,98625.67
2023-03-10T04:56:30.147Z,98622.13
2023-03-10T04:58:59.853Z,98626.17
2023-03-10T05:01:31.600Z,98621.44
2023-03-10T05:04:03.914Z,98615.90
2023-03-10T05:06:33.885Z,98615.25
2023-03-10T05:09:05.161Z,98610.73
2023-03-10T05:11:35.392Z,98622.78
2023-03-10T05:14:05.040Z,98619.02
2023-03-10T05:16:34.929Z,98628.13
2023-03-10T05:19:04.384Z,98623.06
2023-03-10T05:21:34.632Z,98629.58
2023-03-10T05:24:05.214Z,98631.95
2023-03-10T05:26:35.128Z,98633.41
2023-03-10T05:29:05.750Z,98631.89
2023-03-10T05:31:43.298Z,98628.05
2023-03-10T05:34:17.419Z,98624.43
2023-03-10T05:36:48.089Z,98636.30
2023-03-10T05:39:17.838Z,98626.53
2023-03-10T05:41:48.839Z,98624.91
2023-03-10T05:44:18.551Z,98615.78
2023-03-10T05:46:48.048Z,98609.31
2023-03-10T05:49:17.611Z,98615.03
2023-03-10T05:51:47.408Z,98614.20
2023-03-10T05:54:16.812Z,98610.04
2023-03-10T05:56:46.153Z,98617.53
2023-03-10T05:59:15.516Z,98613.63
2023-03-10T06:01:45.127Z,98615.61
2023-03-10T06:04:14.421Z,98619.52
2023-03-10T06:06:44.133Z,98618.22
2023-03-10T06:09:13.401Z,98617.38
2023-03-10T06:11:42.999Z,98617.38
2023-03-10T06:14:12.246Z,98617.78
2023-03-10T06:16:41.934Z,98617.97
2023-03-10T06:19:11.978Z,98623.39
2023-03-10T06:21:41.290Z,98624.48
2023-03-10T06:24:10.600Z,98630.84
2023-03-10T06:26:40.578Z,98627.37
2023-03-10T06:29:10.246Z,98628.53
2023-03-10T06:31:40.066Z,98629.69
2023-03-10T06:34:09.419Z,98626.90
2023-03-10T06:36:40.481Z,98629.42
2023-03-10T06:39:09.747Z,98634.13
2023-03-10T06:41:39.664Z,98630.37
2023-03-10T06:44:09.106Z,98634.75
2023-03-10T06:46:39.322Z,98626.31
2023-03-10T06:49:08.526Z,98635.93
2023-03-10T06:51:38.061Z,98630.36
2023-03-10T06:54:07.357Z,98631.95
2023-03-10T06:56:36.606Z,98625.06
2023-03-10T06:59:05.825Z,98625.39
2023-03-10T07:01:35.623Z,98628.53
2023-03-10T07:04:06.378Z,98640.39
2023-03-10T07:06:53.679Z,98636.56
2023-03-10T07:09:25.918Z,98642.41
2023-03-10T07:11:56.027Z,98635.56
2023-03-10T07:14:31.332Z,98636.95
2023-03-10T07:17:07.304Z,98635.95
2023-03-10T07:19:38.193Z,98639.17
2023-03-10T07:22:11.316Z,98642.47
2023-03-10T07:24:53.510Z,98641.16
2023-03-10T07:27:24.141Z,98641.96
2023-03-10T07:29:53.373Z,98643.50
2023-03-10T07:32:23.024Z,98643.53
2023-03-10T07:34:52.918Z,98643.83
2023-03-10T07:37:22.417Z,98649.40
2023-03-10T07:39:52.583Z,98648.03
2023-03-10T07:42:21.800Z,98651.00
2023-03-10T07:44:51.213Z,98647.70
2023-03-10T07:47:20.592Z,98652.09
2023-03-10T07:49:50.161Z,98653.52
2023-03-10T07:52:20.377Z,98649.61
2023-03-10T07:54:50.113Z,98652.92
2023-03-10T07:57:19.368Z,98650.84
2023-03-10T07:59:49.045Z,98659.71
2023-03-10T08:02:18.414Z,98658.55
2023-03-10T08:04:47.779Z,98659.91
2023-03-10T08:07:17.406Z,98655.11
2023-03-10T08:09:53.252Z,98657.67
2023-03-10T08:12:23.168Z,98654.33
2023-03-10T08:14:52.732Z,98654.38
2023-03-10T08:17:23.658Z,98658.59
2023-03-10T08:19:52.856Z,98651.41
2023-03-10T08:22:22.712Z,98657.31
2023-03-10T08:24:52.304Z,98659.30
2023-03-10T08:27:21.719Z,98652.72
2023-03-10T08:29:50.959Z,98660.23
2023-03-10T08:32:20.570Z,98654.08
2023-03-10T08:34:49.880Z,98653.47
2023-03-10T08:37:19.139Z,98655.08
2023-03-10T08:39:50.135Z,98658.36
2023-03-10T08:42:19.484Z,98651.64
2023-03-10T08:44:48.735Z,98655.25
2023-03-10T08:47:18.308Z,98654.84
2023-03-10T08:49:49.017Z,98650.88
2023-03-10T08:52:18.778Z,98658.09
2023-03-10T08:54:49.884Z,98656.94
2023-03-10T08:57:19.363Z,98651.27
2023-03-10T08:59:48.970Z,98652.30
2023-03-10T09:02:20.401Z,98652.21
2023-03-10T09:04:50.855Z,98655.03
2023-03-10T09:07:20.262Z,98657.56
2023-03-10T09:09:49.735Z,98664.62
2023-03-10T09:12:19.576Z,98662.11
2023-03-10T09:14:48.917Z,98663.46
2023-03-10T09:17:18.246Z,98656.16
2023-03-10T09:19:47.784Z,98655.39
2023-03-10T09:22:17.047Z,98651.84
2023-03-10T09:24:54.926Z,98662.66
2023-03-10T09:27:25.385Z,98644.70
2023-03-10T09:29:54.679Z,98655.50
2023-03-10T09:32:24.344Z,98657.77
2023-03-10T09:34:54.214Z,98655.94
2023-03-10T09:37:23.828Z,98653.97
2023-03-10T09:39:53.668Z,98667.37
2023-03-10T09:42:46.087Z,98664.42
2023-03-10T09:45:33.480Z,98668.39
2023-03-10T09:48:18.035Z,98664.16
2023-03-10T09:50:49.652Z,98672.02
2023-03-10T09:53:58.329Z,98674.95
2023-03-10T09:56:35.183Z,98677.42
2023-03-10T09:59:09.060Z,98674.97
2023-03-10T10:01:39.294Z,98680.19
2023-03-10T10:04:14.072Z,98681.93
2023-03-10T10:06:47.907Z,98680.30
2023-03-10T10:09:42.182Z,98689.11
2023-03-10T10:12:13.597Z,98698.20
2023-03-10T10:14:55.017Z,98696.23
2023-03-10T10:17:33.789Z,98690.55
2023-03-10T10:20:05.282Z,98691.11
2023-03-10T10:22:37.985Z,98687.69
2023-03-10T10:25:16.380Z,98689.36
2023-03-10T10:27:47.690Z,98688.89
2023-03-10T10:30:32.332Z,98685.94
2023-03-10T10:33:09.826Z,98691.51
2023-03-10T10:35:41.612Z,98688.70
2023-03-10T10:38:14.028Z,98684.44
2023-03-10T10:40:52.164Z,98688.88
2023-03-10T10:43:23.013Z,98683.97
2023-03-10T10:45:55.004Z,98679.39
2023-03-10T10:48:39.411Z,98679.89
2023-03-10T10:51:25.325Z,98675.47
2023-03-10T10:53:54.882Z,98672.50
2023-03-10T10:56:24.928Z,98673.17
2023-03-10T10:59:20.640Z,98679.05
2023-03-10T11:01:55.590Z,98681.67
2023-03-10T11:04:26.440Z,98687.86
2023-03-10T11:06:59.110Z,98691.56
2023-03-10T11:09:28.329Z,98693.33
2023-03-10T11:12:00.991Z,98690.92
2023-03-10T11:14:52.558Z,98694.47
2023-03-10T11:17:28.780Z,98691.07
2023-03-10T11:20:05.495Z,98689.15
2023-03-10T11:22:47.028Z,98684.05
2023-03-10T11:25:25.259Z,98674.80
2023-03-10T11:28:20.596Z,98668.59
2023-03-10T11:30:58.831Z,98664.92
2023-03-10T11:33:52.670Z,98677.29
2023-03-10T11:36:55.350Z,98696.09
2023-03-10T11:39:33.619Z,98690.36
2023-03-10T11:42:06.010Z,98692.41
2023-03-10T11:45:12.180Z,98684.73
2023-03-10T11:48:07.257Z,98686.42
2023-03-10T11:51:00.062Z,98680.00
2023-03-10T11:53:46.580Z,98676.03
2023-03-10T11:56:17.196Z,98692.50
2023-03-10T11:59:08.937Z,98690.09
2023-03-10T12:02:12.484Z,98692.64
2023-03-10T12:04:56.703Z,98696.11
2023-03-10T12:07:31.234Z,98707.67
2023-03-10T12:10:03.844Z,98701.92
2023-03-10T12:12:37.398Z,98707.19
2023-03-10T12:15:26.043Z,98716.45
2023-03-10T12:17:55.893Z,98708.30
2023-03-10T12:20:34.232Z,98700.73
2023-03-10T12:23:24.958Z,98707.28
2023-03-10T12:25:54.481Z,98710.46
2023-03-10T12:28:29.430Z,98701.58
2023-03-10T12:31:00.761Z,98712.86
2023-03-10T12:33:40.773Z,98710.75
2023-03-10T12:36:15.141Z,98719.63
2023-03-10T12:38:58.009Z,98735.58
2023-03-10T12:41:33.505Z,98741.47
2023-03-10T12:44:08.090Z,98742.34
2023-03-10T12:46:55.657Z,98744.16
2023-03-10T12:49:43.226Z,98745.04
2023-03-10T12:52:30.519Z,98746.18
2023-03-10T12:55:20.171Z,98746.66
2023-03-10T12:57:55.503Z,98746.27
2023-03-10T13:00:50.168Z,98753.71
2023-03-10T13:03:22.996Z,98763.85
2023-03-10T13:06:04.996Z,98767.89
2023-03-10T13:08:51.942Z,98787.11
2023-03-10T13:11:38.980Z,98789.72
2023-03-10T13:14:16.757Z,98790.39
2023-03-10T13:17:01.092Z,98801.42
2023-03-10T13:19:33.876Z,98805.50
2023-03-10T13:22:07.333Z,98813.66
2023-03-10T13:24:39.423Z,98834.87
2023-03-10T13:27:20.044Z,98851.84
2023-03-10T13:30:04.614Z,98867.37
2023-03-10T13:32:34.651Z,98893.94
2023-03-10T13:35:28.362Z,98901.03
2023-03-10T13:38:09.893Z,98917.86
2023-03-10T13:40:42.745Z,98956.16
2023-03-10T13:43:39.184Z,98964.82
2023-03-10T13:46:16.798Z,98992.61
2023-03-10T13:48:47.445Z,99025.57
2023-03-10T13:51:22.817Z,99039.61
2023-03-10T13:53:55.071Z,99046.11
2023-03-10T13:56:29.548Z,99091.41
2023-03-10T13:58:59.523Z,99105.44
2023-03-10T14:01:31.645Z,99138.30
2023-03-10T14:04:05.424Z,99139.20
2023-03-10T14:06:35.618Z,99147.28
2023-03-10T14:09:16.123Z,99170.42
2023-03-10T14:11:48.067Z,99182.83
2023-03-10T14:14:35.766Z,99206.55
2023-03-10T14:17:07.558Z,99218.33
2023-03-10T14:19:46.033Z,99210.22
2023-03-10T14:22:30.063Z,99210.78
2023-03-10T14:25:01.418Z,99217.72
2023-03-10T14:27:32.575Z,99240.97
2023-03-10T14:30:04.438Z,99265.58
2023-03-10T14:32:33.809Z,99286.33
2023-03-10T14:35:03.555Z,99320.88
2023-03-10T14:37:32.774Z,99340.51
2023-03-10T14:40:02.168Z,99349.86
2023-03-10T14:42:32.001Z,99366.80
2023-03-10T14:45:28.571Z,99364.91
2023-03-10T14:47:59.786Z,99363.05
2023-03-10T14:50:30.687Z,99390.46
2023-03-10T14:52:59.907Z,99411.23
2023-03-10T14:55:30.234Z,99444.45
2023-03-10T14:58:01.698Z,99415.41
2023-03-10T15:00:31.299Z,99449.23
2023-03-10T15:03:01.324Z,99467.31
2023-03-10T15:05:46.867Z,99482.95
2023-03-10T15:08:05.218Z,99492.02
2023-03-10T15:10:36.805Z,99528.48
2023-03-10T15:13:06.469Z,99531.08
2023-03-10T15:15:41.302Z,99549.30
2023-03-10T15:18:15.452Z,99535.91
2023-03-10T15:20:44.834Z,99567.63
2023-03-10T15:23:17.561Z,99595.09
2023-03-10T15:25:46.433Z,99600.72
2023-03-10T15:28:16.447Z,99624.97
2023-03-10T15:30:46.043Z,99653.66
2023-03-10T15:33:15.867Z,99653.94
2023-03-10T15:35:45.497Z,99665.39
2023-03-10T15:38:17.104Z,99676.68
2023-03-10T15:40:46.388Z,99703.95
2023-03-10T15:43:15.695Z,99703.48
2023-03-10T15:45:50.501Z,99720.48
2023-03-10T15:48:19.771Z,99753.03
2023-03-10T15:50:49.065Z,99763.56
2023-03-10T15:53:18.554Z,99764.84
2023-03-10T15:55:48.420Z,99773.60
2023-03-10T15:58:17.729Z,99792.73
2023-03-10T16:00:46.982Z,99785.73
2023-03-10T16:03:18.371Z,99810.41
2023-03-10T16:05:49.079Z,99826.17
2023-03-10T16:08:19.441Z,99843.55
2023-03-10T16:10:55.180Z,99846.94
2023-03-10T16:13:25.099Z,99865.20
2023-03-10T16:15:54.676Z,99878.56
2023-03-10T16:18:24.020Z,99879.80
2023-03-10T16:21:00.573Z,99887.13
2023-03-10T16:23:31.349Z,99894.89
2023-03-10T16:26:12.563Z,99893.78
2023-03-10T16:28:44.830Z,99907.41
2023-03-10T16:31:16.065Z,99929.22
2023-03-10T16:33:47.618Z,99931.77
2023-03-10T16:36:20.360Z,99941.31
2023-03-10T16:38:50.233Z,99943.92
2023-03-10T16:41:21.429Z,99946.06
2023-03-10T16:43:51.193Z,99954.11
2023-03-10T16:46:25.331Z,99951.16
2023-03-10T16:48:55.920Z,99974.65
2023-03-10T16:51:28.586Z,100004.02
2023-03-10T16:54:03.696Z,100018.94
2023-03-10T16:56:35.681Z,100039.27
2023-03-10T16:59:05.598Z,100038.46
2023-03-10T17:01:35.181Z,100042.36
2023-03-10T17:04:04.665Z,100037.54
2023-03-10T17:06:35.064Z,100055.65
2023-03-10T17:09:06.236Z,100052.88
2023-03-10T17:11:38.207Z,100063.44
2023-03-10T17:14:10.597Z,100076.70
2023-03-10T17:16:40.558Z,100084.58
2023-03-10T17:19:15.362Z,100098.08
2023-03-10T17:21:47.266Z,100105.23
2023-03-10T17:24:18.523Z,100106.80
2023-03-10T17:26:47.898Z,100097.86
2023-03-10T17:29:17.539Z,100112.76
2023-03-10T17:31:48.418Z,100120.36
2023-03-10T17:34:18.024Z,100127.33
2023-03-10T17:36:49.140Z,100141.68
2023-03-10T17:39:20.459Z,100145.52
2023-03-10T17:41:50.434Z,100163.42
2023-03-10T17:44:19.707Z,100164.22
2023-03-10T17:46:50.313Z,100179.25
2023-03-10T17:49:20.046Z,100188.56
2023-03-10T17:51:49.484Z,100184.06
2023-03-10T17:54:20.865Z,100181.92
2023-03-10T17:56:50.862Z,100197.27
2023-03-10T17:59:20.339Z,100207.25
2023-03-10T18:01:49.994Z,100223.37
2023-03-10T18:04:19.291Z,100229.40
2023-03-10T18:06:48.534Z,100229.06
2023-03-10T18:09:18.143Z,100240.53
2023-03-10T18:11:47.605Z,100266.21
2023-03-10T18:14:17.061Z,100274.14
2023-03-10T18:16:46.530Z,100275.20
2023-03-10T18:19:18.884Z,100267.06
2023-03-10T18:21:48.732Z,100281.80
2023-03-10T18:24:18.337Z,100279.41
2023-03-10T18:26:47.840Z,100303.90
2023-03-10T18:29:17.615Z,100292.00
2023-03-10T18:31:47.378Z,100296.60
2023-03-10T18:34:18.227Z,100308.47
2023-03-10T18:36:47.629Z,100306.94
2023-03-10T18:39:16.918Z,100310.06
2023-03-10T18:41:46.408Z,100324.00
2023-03-10T18:44:15.614Z,100325.50
2023-03-10T18:46:45.217Z,100341.98
2023-03-10T18:49:14.846Z,100349.39
2023-03-10T18:51:44.151Z,100359.52
2023-03-10T18:54:13.473Z,100366.81
2023-03-10T18:56:43.005Z,100356.61
2023-03-10T18:59:12.474Z,100357.66
2023-03-10T19:01:42.258Z,100367.27
2023-03-10T19:04:11.757Z,100376.34
2023-03-10T19:06:41.413Z,100379.70
2023-03-10T19:09:10.724Z,100382.30
2023-03-10T19:11:40.426Z,100400.08
2023-03-10T19:14:09.880Z,100402.58
2023-03-10T19:16:42.948Z,100409.16
2023-03-10T19:19:12.400Z,100423.41
2023-03-10T19:21:41.734Z,100435.21
2023-03-10T19:24:11.205Z,100443.28
2023-03-10T19:26:40.436Z,100444.30
2023-03-10T19:29:10.162Z,100441.83
2023-03-10T19:31:40.396Z,100445.59
2023-03-10T19:34:10.012Z,100457.70
2023-03-10T19:36:39.509Z,100463.95
2023-03-10T19:39:09.279Z,100462.06
2023-03-10T19:41:38.600Z,100470.73
2023-03-10T19:44:08.752Z,100480.58
2023-03-10T19:46:38.054Z,100473.25
2023-03-10T19:49:08.563Z,100479.75
2023-03-10T19:51:37.918Z,100478.81
2023-03-10T19:54:08.024Z,100476.02
2023-03-10T19:56:37.733Z,100489.42
2023-03-10T19:59:07.166Z,100485.63
2023-03-10T20:01:38.519Z,100486.98
2023-03-10T20:04:08.065Z,100495.13
2023-03-10T20:06:37.373Z,100498.28
2023-03-10T20:09:08.786Z,100513.69
2023-03-10T20:11:39.428Z,100508.95
2023-03-10T20:14:09.736Z,100508.25
2023-03-10T20:16:39.016Z,100518.63
2023-03-10T20:19:09.855Z,100525.66
2023-03-10T20:21:39.189Z,100525.36
2023-03-10T20:24:09.325Z,100527.55
2023-03-10T20:26:38.898Z,100532.98
2023-03-10T20:29:08.583Z,100521.53
2023-03-10T20:31:38.048Z,100522.91
2023-03-10T20:34:08.524Z,100536.25
2023-03-10T20:36:40.038Z,100536.63
2023-03-10T20:39:10.059Z,100543.88
2023-03-10T20:41:39.430Z,100550.83
2023-03-10T20:44:10.846Z,100558.23
2023-03-10T20:46:41.034Z,100564.70
2023-03-10T20:49:11.429Z,100571.66
2023-03-10T20:51:41.718Z,100561.20
2023-03-10T20:54:11.329Z,100567.44
2023-03-10T20:56:40.701Z,100568.83
2023-03-10T20:59:11.976Z,100575.53
2023-03-10T21:01:42.610Z,100575.22
2023-03-10T21:04:12.185Z,100574.25
2023-03-10T21:06:41.420Z,100581.05
2023-03-10T21:09:11.042Z,100576.36
2023-03-10T21:11:40.791Z,100585.00
2023-03-10T21:14:10.724Z,100588.60
2023-03-10T21:16:42.090Z,100585.69
2023-03-10T21:19:11.632Z,100589.50
2023-03-10T21:21:41.104Z,100605.07
2023-03-10T21:24:10.635Z,100606.00
2023-03-10T21:26:39.957Z,100614.46
2023-03-10T21:29:09.351Z,100619.67
2023-03-10T21:31:39.011Z,100623.46
2023-03-10T21:34:08.425Z,100633.17
2023-03-10T21:36:37.688Z,100639.28
2023-03-10T21:39:08.953Z,100646.97
2023-03-10T21:41:38.302Z,100653.48
2023-03-10T21:44:08.353Z,100647.58
2023-03-10T21:46:37.784Z,100656.97
2023-03-10T21:49:07.425Z,100664.84
2023-03-10T21:51:37.173Z,100658.66
2023-03-10T21:54:06.564Z,100668.59
2023-03-10T21:56:36.294Z,100667.97
2023-03-10T21:59:05.530Z,100678.65
2023-03-10T22:01:35.216Z,100678.65
2023-03-10T22:04:05.209Z,100683.62
2023-03-10T22:06:34.862Z,100689.03
2023-03-10T22:09:04.648Z,100692.62
2023-03-10T22:11:34.057Z,100695.18
2023-03-10T22:14:03.549Z,100694.32
2023-03-10T22:16:33.446Z,100695.34
2023-03-10T22:19:03.007Z,100696.38
2023-03-10T22:21:32.592Z,100702.79
2023-03-10T22:24:03.060Z,100708.97
2023-03-10T22:26:32.429Z,100707.44
2023-03-10T22:29:01.718Z,100708.41
2023-03-10T22:31:31.194Z,100720.73
2023-03-10T22:34:00.428Z,100724.16
2023-03-10T22:36:30.058Z,100723.95
2023-03-10T22:38:59.408Z,100729.70
2023-03-10T22:41:28.764Z,100730.34
2023-03-10T22:43:58.077Z,100730.20
2023-03-10T22:46:27.539Z,100733.09
2023-03-10T22:48:56.810Z,100735.03
2023-03-10T22:51:26.135Z,100740.06
2023-03-10T22:53:55.849Z,100744.66
2023-03-10T22:56:25.259Z,100742.33
2023-03-10T22:58:54.674Z,100738.52
2023-03-10T23:01:24.863Z,100732.27
2023-03-10T23:03:54.123Z,100741.57
2023-03-10T23:06:24.539Z,100748.19
2023-03-10T23:08:53.810Z,100743.86
2023-03-10T23:11:23.736Z,100753.91
2023-03-10T23:13:53.548Z,100756.74
2023-03-10T23:16:23.725Z,100763.12
2023-03-10T23:18:53.477Z,100759.92
2023-03-10T23:21:22.977Z,100772.73
2023-03-10T23:23:52.194Z,100779.61
2023-03-10T23:26:21.603Z,100778.96
2023-03-10T23:28:50.888Z,100782.77
2023-03-10T23:31:20.727Z,100789.00
2023-03-10T23:33:50.012Z,100791.85
2023-03-10T23:36:19.489Z,100786.86
2023-03-10T23:38:49.054Z,100791.09
2023-03-10T23:41:18.992Z,100785.56
2023-03-10T23:43:48.685Z,100783.13
2023-03-10T23:46:18.307Z,100786.55
2023-03-10T23:48:47.907Z,100785.06
2023-03-10T23:51:18.060Z,100788.98
2023-03-10T23:53:47.404Z,100783.62
2023-03-10T23:56:16.646Z,100789.26
2023-03-10T23:58:45.986Z,100791.32
